sensor_id;sensor_type;location;lat;lon;timestamp;temperature;humidity
12708;DHT22;6418;50.824;4.718;2024-03-02T00:01:25;6.70;99.90
12708;DHT22;6418;50.824;4.718;2024-03-02T00:03:52;6.70;99.90
12708;DHT22;6418;50.824;4.718;2024-03-02T00:06:21;6.70;99.90
12708;DHT22;6418;50.824;4.718;2024-03-02T00:08:48;6.60;99.90
12708;DHT22;6418;50.824;4.718;2024-03-02T00:11:16;6.60;99.90
12708;DHT22;6418;50.824;4.718;2024-03-02T00:13:45;6.60;99.90
12708;DHT22;6418;50.824;4.718;2024-03-02T00:16:12;6.60;99.90
12708;DHT22;6418;50.824;4.718;2024-03-02T00:18:39;6.60;99.90
12708;DHT22;6418;50.824;4.718;2024-03-02T00:21:07;6.60;99.90
12708;DHT22;6418;50.824;4.718;2024-03-02T00:23:37;6.60;99.90
12708;DHT22;6418;50.824;4.718;2024-03-02T00:26:05;6.60;99.90
12708;DHT22;6418;50.824;4.718;2024-03-02T00:28:35;6.50;99.90
12708;DHT22;6418;50.824;4.718;2024-03-02T00:31:04;6.60;99.90
12708;DHT22;6418;50.824;4.718;2024-03-02T00:33:33;6.50;99.90
12708;DHT22;6418;50.824;4.718;2024-03-02T00:36:00;6.50;99.90
12708;DHT22;6418;50.824;4.718;2024-03-02T00:38:29;6.50;99.90
12708;DHT22;6418;50.824;4.718;2024-03-02T00:40:58;6.50;99.90
12708;DHT22;6418;50.824;4.718;2024-03-02T00:43:42;6.50;99.90
12708;DHT22;6418;50.824;4.718;2024-03-02T00:46:12;6.50;99.90
12708;DHT22;6418;50.824;4.718;2024-03-02T00:48:41;6.50;99.90
12708;DHT22;6418;50.824;4.718;2024-03-02T00:51:11;6.50;99.90
12708;DHT22;6418;50.824;4.718;2024-03-02T00:53:38;6.40;99.90
12708;DHT22;6418;50.824;4.718;2024-03-02T00:56:09;6.40;99.90
12708;DHT22;6418;50.824;4.718;2024-03-02T00:58:37;6.40;99.90
12708;DHT22;6418;50.824;4.718;2024-03-02T01:01:04;6.40;99.90
12708;DHT22;6418;50.824;4.718;2024-03-02T01:03:32;6.40;99.90
12708;DHT22;6418;50.824;4.718;2024-03-02T01:05:59;6.40;99.90
12708;DHT22;6418;50.824;4.718;2024-03-02T01:08:26;6.40;99.90
12708;DHT22;6418;50.824;4.718;2024-03-02T01:10:53;6.40;99.90
12708;DHT22;6418;50.824;4.718;2024-03-02T01:13:22;6.40;99.90
12708;DHT22;6418;50.824;4.718;2024-03-02T01:15:50;6.40;99.90
12708;DHT22;6418;50.824;4.718;2024-03-02T01:18:17;6.40;99.90
12708;DHT22;6418;50.824;4.718;2024-03-02T01:20:44;6.40;99.90
12708;DHT22;6418;50.824;4.718;2024-03-02T01:23:11;6.40;99.90
12708;DHT22;6418;50.824;4.718;2024-03-02T01:25:38;6.40;99.90
12708;DHT22;6418;50.824;4.718;2024-03-02T01:28:05;6.40;99.90
12708;DHT22;6418;50.824;4.718;2024-03-02T01:30:33;6.30;99.90
12708;DHT22;6418;50.824;4.718;2024-03-02T01:33:00;6.30;99.90
12708;DHT22;6418;50.824;4.718;2024-03-02T01:35:27;6.30;99.90
12708;DHT22;6418;50.824;4.718;2024-03-02T01:37:54;6.20;99.90
12708;DHT22;6418;50.824;4.718;2024-03-02T01:40:21;6.30;99.90
12708;DHT22;6418;50.824;4.718;2024-03-02T01:42:52;6.30;99.90
12708;DHT22;6418;50.824;4.718;2024-03-02T01:45:19;6.30;99.90
12708;DHT22;6418;50.824;4.718;2024-03-02T01:47:48;6.30;99.90
12708;DHT22;6418;50.824;4.718;2024-03-02T01:50:15;6.20;99.90
12708;DHT22;6418;50.824;4.718;2024-03-02T01:52:42;6.20;99.90
12708;DHT22;6418;50.824;4.718;2024-03-02T01:55:10;6.30;99.90
12708;DHT22;6418;50.824;4.718;2024-03-02T01:57:37;6.30;99.90
12708;DHT22;6418;50.824;4.718;2024-03-02T02:00:04;6.20;99.90
12708;DHT22;6418;50.824;4.718;2024-03-02T02:02:35;6.20;99.90
12708;DHT22;6418;50.824;4.718;2024-03-02T02:05:04;6.20;99.90
12708;DHT22;6418;50.824;4.718;2024-03-02T02:07:31;6.20;99.90
12708;DHT22;6418;50.824;4.718;2024-03-02T02:09:58;6.20;99.90
12708;DHT22;6418;50.824;4.718;2024-03-02T02:12:25;6.20;99.90
12708;DHT22;6418;50.824;4.718;2024-03-02T02:14:52;6.20;99.90
12708;DHT22;6418;50.824;4.718;2024-03-02T02:17:19;6.20;99.90
12708;DHT22;6418;50.824;4.718;2024-03-02T02:19:46;6.20;99.90
12708;DHT22;6418;50.824;4.718;2024-03-02T02:22:14;6.10;99.90
12708;DHT22;6418;50.824;4.718;2024-03-02T02:24:42;6.20;99.90
12708;DHT22;6418;50.824;4.718;2024-03-02T02:27:09;6.20;99.90
12708;DHT22;6418;50.824;4.718;2024-03-02T02:29:36;6.20;99.90
12708;DHT22;6418;50.824;4.718;2024-03-02T02:32:03;6.20;99.90
12708;DHT22;6418;50.824;4.718;2024-03-02T02:34:30;6.20;99.90
12708;DHT22;6418;50.824;4.718;2024-03-02T02:36:57;6.20;99.90
12708;DHT22;6418;50.824;4.718;2024-03-02T02:39:25;6.20;99.90
12708;DHT22;6418;50.824;4.718;2024-03-02T02:41:52;6.20;99.90
12708;DHT22;6418;50.824;4.718;2024-03-02T02:44:19;6.10;99.90
12708;DHT22;6418;50.824;4.718;2024-03-02T02:46:46;6.10;99.90
12708;DHT22;6418;50.824;4.718;2024-03-02T02:49:13;6.10;99.90
12708;DHT22;6418;50.824;4.718;2024-03-02T02:51:40;6.10;99.90
12708;DHT22;6418;50.824;4.718;2024-03-02T02:54:07;6.00;99.90
12708;DHT22;6418;50.824;4.718;2024-03-02T02:56:35;6.00;99.90
12708;DHT22;6418;50.824;4.718;2024-03-02T02:59:02;6.00;99.90
12708;DHT22;6418;50.824;4.718;2024-03-02T03:01:29;5.90;99.90
12708;DHT22;6418;50.824;4.718;2024-03-02T03:03:57;5.90;99.90
12708;DHT22;6418;50.824;4.718;2024-03-02T03:06:24;5.80;99.90
12708;DHT22;6418;50.824;4.718;2024-03-02T03:08:51;5.70;99.90
12708;DHT22;6418;50.824;4.718;2024-03-02T03:11:18;5.80;99.90
12708;DHT22;6418;50.824;4.718;2024-03-02T03:13:46;5.70;99.90
12708;DHT22;6418;50.824;4.718;2024-03-02T03:16:13;5.70;99.90
12708;DHT22;6418;50.824;4.718;2024-03-02T03:18:40;5.70;99.90
12708;DHT22;6418;50.824;4.718;2024-03-02T03:21:07;5.60;99.90
12708;DHT22;6418;50.824;4.718;2024-03-02T03:23:34;5.60;99.90
12708;DHT22;6418;50.824;4.718;2024-03-02T03:26:01;5.60;99.90
12708;DHT22;6418;50.824;4.718;2024-03-02T03:28:28;5.60;99.90
12708;DHT22;6418;50.824;4.718;2024-03-02T03:30:56;5.50;99.90
12708;DHT22;6418;50.824;4.718;2024-03-02T03:33:22;5.50;99.90
12708;DHT22;6418;50.824;4.718;2024-03-02T03:35:49;5.50;99.90
12708;DHT22;6418;50.824;4.718;2024-03-02T03:38:16;5.40;99.90
12708;DHT22;6418;50.824;4.718;2024-03-02T03:40:43;5.40;99.90
12708;DHT22;6418;50.824;4.718;2024-03-02T03:43:10;5.40;99.90
12708;DHT22;6418;50.824;4.718;2024-03-02T03:45:37;5.40;99.90
12708;DHT22;6418;50.824;4.718;2024-03-02T03:48:06;5.40;99.90
12708;DHT22;6418;50.824;4.718;2024-03-02T03:50:32;5.30;99.90
12708;DHT22;6418;50.824;4.718;2024-03-02T03:52:59;5.30;99.90
12708;DHT22;6418;50.824;4.718;2024-03-02T03:55:26;5.30;99.90
12708;DHT22;6418;50.824;4.718;2024-03-02T03:57:53;5.30;99.90
12708;DHT22;6418;50.824;4.718;2024-03-02T04:00:20;5.20;99.90
12708;DHT22;6418;50.824;4.718;2024-03-02T04:02:47;5.20;99.90
12708;DHT22;6418;50.824;4.718;2024-03-02T04:05:15;5.20;99.90
12708;DHT22;6418;50.824;4.718;2024-03-02T04:07:42;5.20;99.90
12708;DHT22;6418;50.824;4.718;2024-03-02T04:10:10;5.20;99.90
12708;DHT22;6418;50.824;4.718;2024-03-02T04:12:37;5.20;99.90
12708;DHT22;6418;50.824;4.718;2024-03-02T04:15:05;5.10;99.90
12708;DHT22;6418;50.824;4.718;2024-03-02T04:17:33;5.10;99.90
12708;DHT22;6418;50.824;4.718;2024-03-02T04:20:01;5.10;99.90
12708;DHT22;6418;50.824;4.718;2024-03-02T04:22:33;5.10;99.90
12708;DHT22;6418;50.824;4.718;2024-03-02T04:25:01;5.00;99.90
12708;DHT22;6418;50.824;4.718;2024-03-02T04:27:30;5.00;99.90
12708;DHT22;6418;50.824;4.718;2024-03-02T04:29:58;5.00;99.90
12708;DHT22;6418;50.824;4.718;2024-03-02T04:32:25;5.00;99.90
12708;DHT22;6418;50.824;4.718;2024-03-02T04:34:52;4.90;99.90
12708;DHT22;6418;50.824;4.718;2024-03-02T04:37:19;4.90;99.90
12708;DHT22;6418;50.824;4.718;2024-03-02T04:39:48;4.90;99.90
12708;DHT22;6418;50.824;4.718;2024-03-02T04:42:14;4.90;99.90
12708;DHT22;6418;50.824;4.718;2024-03-02T04:44:41;4.80;99.90
12708;DHT22;6418;50.824;4.718;2024-03-02T04:47:08;4.80;99.90
12708;DHT22;6418;50.824;4.718;2024-03-02T04:49:35;4.80;99.90
12708;DHT22;6418;50.824;4.718;2024-03-02T04:52:02;4.80;99.90
12708;DHT22;6418;50.824;4.718;2024-03-02T04:54:29;4.80;99.90
12708;DHT22;6418;50.824;4.718;2024-03-02T04:56:57;4.70;99.90
12708;DHT22;6418;50.824;4.718;2024-03-02T04:59:24;4.70;99.90
12708;DHT22;6418;50.824;4.718;2024-03-02T05:01:51;4.80;99.90
12708;DHT22;6418;50.824;4.718;2024-03-02T05:04:18;4.70;99.90
12708;DHT22;6418;50.824;4.718;2024-03-02T05:06:45;4.70;99.90
12708;DHT22;6418;50.824;4.718;2024-03-02T05:09:17;4.70;99.90
12708;DHT22;6418;50.824;4.718;2024-03-02T05:11:44;4.70;99.90
12708;DHT22;6418;50.824;4.718;2024-03-02T05:14:37;4.70;99.90
12708;DHT22;6418;50.824;4.718;2024-03-02T05:17:04;4.70;99.90
12708;DHT22;6418;50.824;4.718;2024-03-02T05:19:31;4.70;99.90
12708;DHT22;6418;50.824;4.718;2024-03-02T05:21:58;4.70;99.90
12708;DHT22;6418;50.824;4.718;2024-03-02T05:24:25;4.70;99.90
12708;DHT22;6418;50.824;4.718;2024-03-02T05:26:53;4.70;99.90
12708;DHT22;6418;50.824;4.718;2024-03-02T05:29:20;4.70;99.90
12708;DHT22;6418;50.824;4.718;2024-03-02T05:31:48;4.70;99.90
12708;DHT22;6418;50.824;4.718;2024-03-02T05:34:15;4.70;99.90
12708;DHT22;6418;50.824;4.718;2024-03-02T05:36:42;4.70;99.90
12708;DHT22;6418;50.824;4.718;2024-03-02T05:39:09;4.60;99.90
12708;DHT22;6418;50.824;4.718;2024-03-02T05:41:36;4.60;99.90
12708;DHT22;6418;50.824;4.718;2024-03-02T05:44:04;4.60;99.90
12708;DHT22;6418;50.824;4.718;2024-03-02T05:46:31;4.60;99.90
12708;DHT22;6418;50.824;4.718;2024-03-02T05:48:59;4.60;99.90
12708;DHT22;6418;50.824;4.718;2024-03-02T05:51:26;4.60;99.90
12708;DHT22;6418;50.824;4.718;2024-03-02T05:53:53;4.50;99.90
12708;DHT22;6418;50.824;4.718;2024-03-02T05:56:20;4.50;99.90
12708;DHT22;6418;50.824;4.718;2024-03-02T05:58:47;4.50;99.90
12708;DHT22;6418;50.824;4.718;2024-03-02T06:01:26;4.50;99.90
12708;DHT22;6418;50.824;4.718;2024-03-02T06:03:55;4.50;99.90
12708;DHT22;6418;50.824;4.718;2024-03-02T06:06:23;4.50;99.90
12708;DHT22;6418;50.824;4.718;2024-03-02T06:08:50;4.50;99.90
12708;DHT22;6418;50.824;4.718;2024-03-02T06:11:18;4.50;99.90
12708;DHT22;6418;50.824;4.718;2024-03-02T06:13:45;4.50;99.90
12708;DHT22;6418;50.824;4.718;2024-03-02T06:16:12;4.50;99.90
12708;DHT22;6418;50.824;4.718;2024-03-02T06:18:39;4.40;99.90
12708;DHT22;6418;50.824;4.718;2024-03-02T06:21:06;4.40;99.90
12708;DHT22;6418;50.824;4.718;2024-03-02T06:23:35;4.40;99.90
12708;DHT22;6418;50.824;4.718;2024-03-02T06:26:02;4.40;99.90
12708;DHT22;6418;50.824;4.718;2024-03-02T06:28:29;4.40;99.90
12708;DHT22;6418;50.824;4.718;2024-03-02T06:30:56;4.40;99.90
12708;DHT22;6418;50.824;4.718;2024-03-02T06:33:23;4.40;99.90
12708;DHT22;6418;50.824;4.718;2024-03-02T06:35:50;4.40;99.90
12708;DHT22;6418;50.824;4.718;2024-03-02T06:38:16;4.50;99.90
12708;DHT22;6418;50.824;4.718;2024-03-02T06:40:45;4.40;99.90
12708;DHT22;6418;50.824;4.718;2024-03-02T06:43:12;4.40;99.90
12708;DHT22;6418;50.824;4.718;2024-03-02T06:45:38;4.50;99.90
12708;DHT22;6418;50.824;4.718;2024-03-02T06:48:06;4.40;99.90
12708;DHT22;6418;50.824;4.718;2024-03-02T06:50:33;4.40;99.90
12708;DHT22;6418;50.824;4.718;2024-03-02T06:53:00;4.40;99.90
12708;DHT22;6418;50.824;4.718;2024-03-02T06:55:29;4.40;99.90
12708;DHT22;6418;50.824;4.718;2024-03-02T06:57:57;4.40;99.90
12708;DHT22;6418;50.824;4.718;2024-03-02T07:00:24;4.40;99.90
12708;DHT22;6418;50.824;4.718;2024-03-02T07:02:51;4.50;99.90
12708;DHT22;6418;50.824;4.718;2024-03-02T07:05:18;4.50;99.90
12708;DHT22;6418;50.824;4.718;2024-03-02T07:07:46;4.50;99.90
12708;DHT22;6418;50.824;4.718;2024-03-02T07:10:13;4.50;99.90
12708;DHT22;6418;50.824;4.718;2024-03-02T07:12:40;4.50;99.90
12708;DHT22;6418;50.824;4.718;2024-03-02T07:15:09;4.50;99.90
12708;DHT22;6418;50.824;4.718;2024-03-02T07:18:02;4.50;99.90
12708;DHT22;6418;50.824;4.718;2024-03-02T07:20:29;4.50;99.90
12708;DHT22;6418;50.824;4.718;2024-03-02T07:22:56;4.50;99.90
12708;DHT22;6418;50.824;4.718;2024-03-02T07:25:23;4.50;99.90
12708;DHT22;6418;50.824;4.718;2024-03-02T07:27:51;4.50;99.90
12708;DHT22;6418;50.824;4.718;2024-03-02T07:30:19;4.50;99.90
12708;DHT22;6418;50.824;4.718;2024-03-02T07:32:49;4.60;99.90
12708;DHT22;6418;50.824;4.718;2024-03-02T07:35:16;4.60;99.90
12708;DHT22;6418;50.824;4.718;2024-03-02T07:37:44;4.60;99.90
12708;DHT22;6418;50.824;4.718;2024-03-02T07:40:12;4.70;99.90
12708;DHT22;6418;50.824;4.718;2024-03-02T07:42:40;4.70;99.90
12708;DHT22;6418;50.824;4.718;2024-03-02T07:45:07;4.70;99.90
12708;DHT22;6418;50.824;4.718;2024-03-02T07:47:35;4.70;99.90
12708;DHT22;6418;50.824;4.718;2024-03-02T07:50:03;4.70;99.90
12708;DHT22;6418;50.824;4.718;2024-03-02T07:52:31;4.70;99.90
12708;DHT22;6418;50.824;4.718;2024-03-02T07:54:58;4.70;99.90
12708;DHT22;6418;50.824;4.718;2024-03-02T07:57:25;4.80;99.90
12708;DHT22;6418;50.824;4.718;2024-03-02T07:59:52;4.80;99.90
12708;DHT22;6418;50.824;4.718;2024-03-02T08:02:19;4.80;99.90
12708;DHT22;6418;50.824;4.718;2024-03-02T08:04:48;4.80;99.90
12708;DHT22;6418;50.824;4.718;2024-03-02T08:07:15;4.90;99.90
12708;DHT22;6418;50.824;4.718;2024-03-02T08:09:42;4.90;99.90
12708;DHT22;6418;50.824;4.718;2024-03-02T08:12:09;4.90;99.90
12708;DHT22;6418;50.824;4.718;2024-03-02T08:14:36;5.00;99.90
12708;DHT22;6418;50.824;4.718;2024-03-02T08:17:03;5.00;99.90
12708;DHT22;6418;50.824;4.718;2024-03-02T08:19:35;5.10;99.90
12708;DHT22;6418;50.824;4.718;2024-03-02T08:22:03;5.10;99.90
12708;DHT22;6418;50.824;4.718;2024-03-02T08:24:30;5.20;99.90
12708;DHT22;6418;50.824;4.718;2024-03-02T08:26:58;5.20;99.90
12708;DHT22;6418;50.824;4.718;2024-03-02T08:29:25;5.30;99.90
12708;DHT22;6418;50.824;4.718;2024-03-02T08:31:53;5.30;99.90
12708;DHT22;6418;50.824;4.718;2024-03-02T08:34:19;5.40;99.90
12708;DHT22;6418;50.824;4.718;2024-03-02T08:36:47;5.50;99.90
12708;DHT22;6418;50.824;4.718;2024-03-02T08:39:15;5.50;99.90
